sensor_id;sensor_type;location;lat;lon;timestamp;P1;durP1;ratioP1;P2;durP2;ratioP2
20020;SDS011;10171;42.694;23.318;2022-07-21T00:00:31;3.10;;;2.30;;
20020;SDS011;10171;42.694;23.318;2022-07-21T00:02:56;3.15;;;2.50;;
20020;SDS011;10171;42.694;23.318;2022-07-21T00:05:22;3.28;;;2.72;;
20020;SDS011;10171;42.694;23.318;2022-07-21T00:07:47;3.47;;;2.88;;
20020;SDS011;10171;42.694;23.318;2022-07-21T00:10:13;5.78;;;2.90;;
20020;SDS011;10171;42.694;23.318;2022-07-21T00:12:39;3.97;;;2.85;;
20020;SDS011;10171;42.694;23.318;2022-07-21T00:15:05;2.90;;;2.55;;
20020;SDS011;10171;42.694;23.318;2022-07-21T00:17:30;3.33;;;2.67;;
20020;SDS011;10171;42.694;23.318;2022-07-21T00:19:56;3.22;;;2.63;;
20020;SDS011;10171;42.694;23.318;2022-07-21T00:22:21;3.95;;;2.80;;
20020;SDS011;10171;42.694;23.318;2022-07-21T00:24:46;3.63;;;2.50;;
20020;SDS011;10171;42.694;23.318;2022-07-21T00:27:12;3.50;;;2.78;;
20020;SDS011;10171;42.694;23.318;2022-07-21T00:29:37;2.90;;;2.55;;
20020;SDS011;10171;42.694;23.318;2022-07-21T00:32:02;3.03;;;2.72;;
20020;SDS011;10171;42.694;23.318;2022-07-21T00:34:29;8.13;;;3.28;;
20020;SDS011;10171;42.694;23.318;2022-07-21T00:36:55;3.67;;;2.83;;
20020;SDS011;10171;42.694;23.318;2022-07-21T00:39:20;4.63;;;2.97;;
20020;SDS011;10171;42.694;23.318;2022-07-21T00:41:45;4.60;;;3.00;;
20020;SDS011;10171;42.694;23.318;2022-07-21T00:44:21;5.40;;;3.20;;
20020;SDS011;10171;42.694;23.318;2022-07-21T00:46:46;2.97;;;2.50;;
20020;SDS011;10171;42.694;23.318;2022-07-21T00:49:11;3.42;;;3.13;;
20020;SDS011;10171;42.694;23.318;2022-07-21T00:51:37;3.00;;;2.70;;
20020;SDS011;10171;42.694;23.318;2022-07-21T00:54:02;3.40;;;2.63;;
20020;SDS011;10171;42.694;23.318;2022-07-21T00:56:27;5.50;;;2.70;;
20020;SDS011;10171;42.694;23.318;2022-07-21T00:58:53;3.20;;;2.90;;
20020;SDS011;10171;42.694;23.318;2022-07-21T01:01:18;2.80;;;2.60;;
20020;SDS011;10171;42.694;23.318;2022-07-21T01:03:43;3.38;;;2.90;;
20020;SDS011;10171;42.694;23.318;2022-07-21T01:06:09;3.70;;;3.20;;
20020;SDS011;10171;42.694;23.318;2022-07-21T01:08:34;3.58;;;3.20;;
20020;SDS011;10171;42.694;23.318;2022-07-21T01:10:59;2.70;;;2.50;;
20020;SDS011;10171;42.694;23.318;2022-07-21T01:13:25;3.55;;;2.78;;
20020;SDS011;10171;42.694;23.318;2022-07-21T01:15:50;3.40;;;2.70;;
20020;SDS011;10171;42.694;23.318;2022-07-21T01:18:15;3.70;;;3.03;;
20020;SDS011;10171;42.694;23.318;2022-07-21T01:20:41;5.72;;;2.97;;
20020;SDS011;10171;42.694;23.318;2022-07-21T01:23:09;3.25;;;2.95;;
20020;SDS011;10171;42.694;23.318;2022-07-21T01:25:35;4.53;;;3.28;;
20020;SDS011;10171;42.694;23.318;2022-07-21T01:28:00;3.72;;;3.28;;
20020;SDS011;10171;42.694;23.318;2022-07-21T01:30:28;4.03;;;3.30;;
20020;SDS011;10171;42.694;23.318;2022-07-21T01:32:54;4.15;;;3.35;;
20020;SDS011;10171;42.694;23.318;2022-07-21T01:35:19;3.90;;;3.30;;
20020;SDS011;10171;42.694;23.318;2022-07-21T01:37:45;4.90;;;3.33;;
20020;SDS011;10171;42.694;23.318;2022-07-21T01:40:11;3.42;;;3.13;;
20020;SDS011;10171;42.694;23.318;2022-07-21T01:42:56;3.53;;;3.22;;
20020;SDS011;10171;42.694;23.318;2022-07-21T01:45:21;2.92;;;2.70;;
20020;SDS011;10171;42.694;23.318;2022-07-21T01:47:47;3.30;;;3.00;;
20020;SDS011;10171;42.694;23.318;2022-07-21T01:50:12;3.45;;;2.97;;
20020;SDS011;10171;42.694;23.318;2022-07-21T01:52:38;3.13;;;2.83;;
20020;SDS011;10171;42.694;23.318;2022-07-21T01:55:03;3.53;;;3.22;;
20020;SDS011;10171;42.694;23.318;2022-07-21T01:57:29;4.63;;;2.97;;
20020;SDS011;10171;42.694;23.318;2022-07-21T01:59:54;3.42;;;2.70;;
20020;SDS011;10171;42.694;23.318;2022-07-21T02:02:19;2.92;;;2.72;;
20020;SDS011;10171;42.694;23.318;2022-07-21T02:04:47;4.50;;;2.97;;
20020;SDS011;10171;42.694;23.318;2022-07-21T02:07:12;3.55;;;2.95;;
20020;SDS011;10171;42.694;23.318;2022-07-21T02:09:37;4.22;;;2.80;;
20020;SDS011;10171;42.694;23.318;2022-07-21T02:12:03;3.40;;;3.10;;
20020;SDS011;10171;42.694;23.318;2022-07-21T02:14:28;3.20;;;2.90;;
20020;SDS011;10171;42.694;23.318;2022-07-21T02:16:53;4.05;;;3.13;;
20020;SDS011;10171;42.694;23.318;2022-07-21T02:19:18;3.65;;;3.35;;
20020;SDS011;10171;42.694;23.318;2022-07-21T02:21:44;3.72;;;2.75;;
20020;SDS011;10171;42.694;23.318;2022-07-21T02:24:09;3.28;;;2.95;;
20020;SDS011;10171;42.694;23.318;2022-07-21T02:26:34;4.30;;;3.10;;
20020;SDS011;10171;42.694;23.318;2022-07-21T02:29:00;4.28;;;3.30;;
20020;SDS011;10171;42.694;23.318;2022-07-21T02:31:25;6.25;;;3.40;;
20020;SDS011;10171;42.694;23.318;2022-07-21T02:33:50;6.78;;;3.30;;
20020;SDS011;10171;42.694;23.318;2022-07-21T02:36:18;3.72;;;3.33;;
20020;SDS011;10171;42.694;23.318;2022-07-21T02:38:44;6.22;;;3.38;;
20020;SDS011;10171;42.694;23.318;2022-07-21T02:41:09;4.60;;;3.00;;
20020;SDS011;10171;42.694;23.318;2022-07-21T02:43:34;4.68;;;3.85;;
20020;SDS011;10171;42.694;23.318;2022-07-21T02:45:59;3.88;;;3.35;;
20020;SDS011;10171;42.694;23.318;2022-07-21T02:48:25;4.07;;;3.67;;
20020;SDS011;10171;42.694;23.318;2022-07-21T02:50:50;3.90;;;3.30;;
20020;SDS011;10171;42.694;23.318;2022-07-21T02:53:16;5.90;;;3.35;;
20020;SDS011;10171;42.694;23.318;2022-07-21T02:55:48;3.35;;;2.83;;
20020;SDS011;10171;42.694;23.318;2022-07-21T03:00:40;4.28;;;3.33;;
20020;SDS011;10171;42.694;23.318;2022-07-21T03:03:06;3.40;;;3.10;;
20020;SDS011;10171;42.694;23.318;2022-07-21T03:05:32;4.35;;;3.28;;
20020;SDS011;10171;42.694;23.318;2022-07-21T03:07:58;5.38;;;3.75;;
20020;SDS011;10171;42.694;23.318;2022-07-21T03:10:23;3.92;;;3.55;;
20020;SDS011;10171;42.694;23.318;2022-07-21T03:12:48;4.22;;;3.83;;
20020;SDS011;10171;42.694;23.318;2022-07-21T03:15:14;3.70;;;3.35;;
20020;SDS011;10171;42.694;23.318;2022-07-21T03:17:39;3.85;;;3.47;;
20020;SDS011;10171;42.694;23.318;2022-07-21T03:20:04;3.40;;;3.10;;
20020;SDS011;10171;42.694;23.318;2022-07-21T03:22:29;5.43;;;3.20;;
20020;SDS011;10171;42.694;23.318;2022-07-21T03:24:55;5.13;;;3.63;;
20020;SDS011;10171;42.694;23.318;2022-07-21T03:27:20;6.43;;;3.90;;
20020;SDS011;10171;42.694;23.318;2022-07-21T03:29:45;3.67;;;3.20;;
20020;SDS011;10171;42.694;23.318;2022-07-21T03:32:10;3.50;;;3.20;;
20020;SDS011;10171;42.694;23.318;2022-07-21T03:34:36;3.88;;;3.30;;
20020;SDS011;10171;42.694;23.318;2022-07-21T03:37:01;4.57;;;3.00;;
20020;SDS011;10171;42.694;23.318;2022-07-21T03:39:26;3.38;;;2.90;;
20020;SDS011;10171;42.694;23.318;2022-07-21T03:41:51;2.92;;;2.65;;
20020;SDS011;10171;42.694;23.318;2022-07-21T03:44:17;5.07;;;3.38;;
20020;SDS011;10171;42.694;23.318;2022-07-21T03:46:42;4.13;;;3.40;;
20020;SDS011;10171;42.694;23.318;2022-07-21T03:49:07;3.83;;;3.47;;
20020;SDS011;10171;42.694;23.318;2022-07-21T03:51:33;4.40;;;3.25;;
20020;SDS011;10171;42.694;23.318;2022-07-21T03:53:58;5.57;;;3.50;;
20020;SDS011;10171;42.694;23.318;2022-07-21T03:56:24;6.85;;;3.78;;
20020;SDS011;10171;42.694;23.318;2022-07-21T03:58:49;4.40;;;3.50;;
20020;SDS011;10171;42.694;23.318;2022-07-21T04:01:15;6.40;;;3.90;;
20020;SDS011;10171;42.694;23.318;2022-07-21T04:03:40;4.97;;;3.08;;
20020;SDS011;10171;42.694;23.318;2022-07-21T04:06:05;4.10;;;3.10;;
20020;SDS011;10171;42.694;23.318;2022-07-21T04:08:35;4.95;;;3.63;;
20020;SDS011;10171;42.694;23.318;2022-07-21T04:11:00;3.90;;;3.35;;
20020;SDS011;10171;42.694;23.318;2022-07-21T04:13:25;3.97;;;3.58;;
20020;SDS011;10171;42.694;23.318;2022-07-21T04:15:53;5.00;;;4.30;;
20020;SDS011;10171;42.694;23.318;2022-07-21T04:18:18;4.88;;;4.10;;
20020;SDS011;10171;42.694;23.318;2022-07-21T04:20:44;5.80;;;3.90;;
20020;SDS011;10171;42.694;23.318;2022-07-21T04:23:09;6.30;;;3.80;;
20020;SDS011;10171;42.694;23.318;2022-07-21T04:25:34;3.78;;;3.38;;
20020;SDS011;10171;42.694;23.318;2022-07-21T04:28:01;3.58;;;3.15;;
20020;SDS011;10171;42.694;23.318;2022-07-21T04:30:26;4.13;;;3.72;;
20020;SDS011;10171;42.694;23.318;2022-07-21T04:32:51;6.93;;;4.05;;
20020;SDS011;10171;42.694;23.318;2022-07-21T04:35:17;4.32;;;3.92;;
20020;SDS011;10171;42.694;23.318;2022-07-21T04:37:43;5.28;;;3.97;;
20020;SDS011;10171;42.694;23.318;2022-07-21T04:40:09;6.63;;;4.07;;
20020;SDS011;10171;42.694;23.318;2022-07-21T04:42:35;4.05;;;3.63;;
20020;SDS011;10171;42.694;23.318;2022-07-21T04:45:00;5.63;;;4.10;;
20020;SDS011;10171;42.694;23.318;2022-07-21T04:47:25;6.57;;;4.07;;
20020;SDS011;10171;42.694;23.318;2022-07-21T04:49:51;5.25;;;4.20;;
20020;SDS011;10171;42.694;23.318;2022-07-21T04:52:16;6.93;;;4.07;;
20020;SDS011;10171;42.694;23.318;2022-07-21T04:54:41;6.07;;;4.20;;
20020;SDS011;10171;42.694;23.318;2022-07-21T04:57:07;4.78;;;4.00;;
20020;SDS011;10171;42.694;23.318;2022-07-21T04:59:32;7.05;;;3.95;;
20020;SDS011;10171;42.694;23.318;2022-07-21T05:01:58;6.22;;;4.38;;
20020;SDS011;10171;42.694;23.318;2022-07-21T05:04:24;5.28;;;3.80;;
20020;SDS011;10171;42.694;23.318;2022-07-21T05:06:49;6.50;;;4.50;;
20020;SDS011;10171;42.694;23.318;2022-07-21T05:09:15;4.35;;;3.92;;
20020;SDS011;10171;42.694;23.318;2022-07-21T05:11:40;6.95;;;4.10;;
20020;SDS011;10171;42.694;23.318;2022-07-21T05:14:06;6.53;;;4.15;;
20020;SDS011;10171;42.694;23.318;2022-07-21T05:16:31;6.68;;;3.95;;
20020;SDS011;10171;42.694;23.318;2022-07-21T05:18:56;7.30;;;4.57;;
20020;SDS011;10171;42.694;23.318;2022-07-21T05:21:22;6.03;;;3.90;;
20020;SDS011;10171;42.694;23.318;2022-07-21T05:23:47;6.43;;;4.45;;
20020;SDS011;10171;42.694;23.318;2022-07-21T05:26:12;6.57;;;4.05;;
20020;SDS011;10171;42.694;23.318;2022-07-21T05:28:38;6.45;;;4.40;;
20020;SDS011;10171;42.694;23.318;2022-07-21T05:31:03;5.80;;;3.95;;
20020;SDS011;10171;42.694;23.318;2022-07-21T05:33:28;7.60;;;4.90;;
20020;SDS011;10171;42.694;23.318;2022-07-21T05:35:54;8.07;;;4.78;;
20020;SDS011;10171;42.694;23.318;2022-07-21T05:38:19;9.80;;;4.43;;
20020;SDS011;10171;42.694;23.318;2022-07-21T05:40:44;7.35;;;4.60;;
20020;SDS011;10171;42.694;23.318;2022-07-21T05:43:09;10.75;;;5.55;;
20020;SDS011;10171;42.694;23.318;2022-07-21T05:45:35;5.85;;;4.78;;
20020;SDS011;10171;42.694;23.318;2022-07-21T05:48:00;7.43;;;5.30;;
20020;SDS011;10171;42.694;23.318;2022-07-21T05:50:25;6.72;;;5.20;;
20020;SDS011;10171;42.694;23.318;2022-07-21T05:52:51;10.55;;;5.00;;
20020;SDS011;10171;42.694;23.318;2022-07-21T05:55:16;5.57;;;4.78;;
20020;SDS011;10171;42.694;23.318;2022-07-21T05:57:41;6.70;;;5.13;;
20020;SDS011;10171;42.694;23.318;2022-07-21T06:00:07;6.70;;;4.45;;
20020;SDS011;10171;42.694;23.318;2022-07-21T06:02:32;6.07;;;4.97;;
20020;SDS011;10171;42.694;23.318;2022-07-21T06:04:58;7.20;;;5.07;;
20020;SDS011;10171;42.694;23.318;2022-07-21T06:07:23;8.07;;;4.90;;
20020;SDS011;10171;42.694;23.318;2022-07-21T06:09:49;11.25;;;5.72;;
20020;SDS011;10171;42.694;23.318;2022-07-21T06:12:14;6.80;;;4.97;;
20020;SDS011;10171;42.694;23.318;2022-07-21T06:14:39;7.47;;;5.72;;
20020;SDS011;10171;42.694;23.318;2022-07-21T06:17:05;5.93;;;5.22;;
20020;SDS011;10171;42.694;23.318;2022-07-21T06:19:30;9.88;;;5.85;;
20020;SDS011;10171;42.694;23.318;2022-07-21T06:21:56;10.00;;;5.50;;
20020;SDS011;10171;42.694;23.318;2022-07-21T06:24:22;8.10;;;5.47;;
20020;SDS011;10171;42.694;23.318;2022-07-21T06:26:47;9.57;;;5.13;;
20020;SDS011;10171;42.694;23.318;2022-07-21T06:29:13;9.32;;;6.07;;
20020;SDS011;10171;42.694;23.318;2022-07-21T06:31:38;5.78;;;5.20;;
20020;SDS011;10171;42.694;23.318;2022-07-21T06:34:04;6.80;;;5.30;;
20020;SDS011;10171;42.694;23.318;2022-07-21T06:36:29;8.15;;;6.32;;
20020;SDS011;10171;42.694;23.318;2022-07-21T06:38:54;8.88;;;6.28;;
20020;SDS011;10171;42.694;23.318;2022-07-21T06:41:19;8.27;;;5.32;;
20020;SDS011;10171;42.694;23.318;2022-07-21T06:43:45;9.32;;;6.38;;
20020;SDS011;10171;42.694;23.318;2022-07-21T06:46:10;10.10;;;5.78;;
20020;SDS011;10171;42.694;23.318;2022-07-21T06:48:35;9.82;;;5.95;;
20020;SDS011;10171;42.694;23.318;2022-07-21T06:51:01;11.35;;;6.43;;
20020;SDS011;10171;42.694;23.318;2022-07-21T06:53:26;11.55;;;5.88;;
20020;SDS011;10171;42.694;23.318;2022-07-21T06:55:51;10.07;;;5.60;;
20020;SDS011;10171;42.694;23.318;2022-07-21T06:58:19;9.68;;;5.70;;
20020;SDS011;10171;42.694;23.318;2022-07-21T07:00:45;12.05;;;5.47;;
20020;SDS011;10171;42.694;23.318;2022-07-21T07:03:10;11.77;;;5.85;;
20020;SDS011;10171;42.694;23.318;2022-07-21T07:05:36;9.95;;;5.72;;
20020;SDS011;10171;42.694;23.318;2022-07-21T07:08:02;10.27;;;5.05;;
20020;SDS011;10171;42.694;23.318;2022-07-21T07:10:27;7.20;;;5.05;;
20020;SDS011;10171;42.694;23.318;2022-07-21T07:12:53;11.45;;;5.13;;
20020;SDS011;10171;42.694;23.318;2022-07-21T07:15:18;7.50;;;5.32;;
20020;SDS011;10171;42.694;23.318;2022-07-21T07:17:43;7.00;;;5.15;;
20020;SDS011;10171;42.694;23.318;2022-07-21T07:20:09;7.03;;;4.88;;
20020;SDS011;10171;42.694;23.318;2022-07-21T07:22:35;7.15;;;4.28;;
20020;SDS011;10171;42.694;23.318;2022-07-21T07:25:00;11.07;;;4.78;;
20020;SDS011;10171;42.694;23.318;2022-07-21T07:27:25;8.00;;;4.80;;
20020;SDS011;10171;42.694;23.318;2022-07-21T07:29:51;6.32;;;4.57;;
20020;SDS011;10171;42.694;23.318;2022-07-21T07:32:16;6.55;;;4.50;;
20020;SDS011;10171;42.694;23.318;2022-07-21T07:34:42;9.02;;;5.32;;
20020;SDS011;10171;42.694;23.318;2022-07-21T07:37:07;6.70;;;4.35;;
20020;SDS011;10171;42.694;23.318;2022-07-21T07:39:33;4.68;;;4.28;;
20020;SDS011;10171;42.694;23.318;2022-07-21T07:41:58;6.70;;;4.55;;
20020;SDS011;10171;42.694;23.318;2022-07-21T07:44:23;5.07;;;3.60;;
20020;SDS011;10171;42.694;23.318;2022-07-21T07:46:49;6.13;;;4.13;;
20020;SDS011;10171;42.694;23.318;2022-07-21T07:49:14;5.72;;;3.67;;
20020;SDS011;10171;42.694;23.318;2022-07-21T07:51:39;3.95;;;3.40;;
20020;SDS011;10171;42.694;23.318;2022-07-21T07:54:04;5.10;;;3.08;;
20020;SDS011;10171;42.694;23.318;2022-07-21T07:56:30;3.97;;;3.13;;
20020;SDS011;10171;42.694;23.318;2022-07-21T07:58:56;6.68;;;3.35;;
20020;SDS011;10171;42.694;23.318;2022-07-21T08:01:21;4.78;;;3.40;;
20020;SDS011;10171;42.694;23.318;2022-07-21T08:03:47;3.35;;;3.05;;
20020;SDS011;10171;42.694;23.318;2022-07-21T08:06:12;7.82;;;3.55;;
20020;SDS011;10171;42.694;23.318;2022-07-21T08:08:37;6.03;;;3.70;;
20020;SDS011;10171;42.694;23.318;2022-07-21T08:11:03;5.45;;;3.28;;
20020;SDS011;10171;42.694;23.318;2022-07-21T08:13:28;6.25;;;3.13;;
20020;SDS011;10171;42.694;23.318;2022-07-21T08:15:53;5.35;;;3.33;;
20020;SDS011;10171;42.694;23.318;2022-07-21T08:18:19;4.50;;;3.42;;
20020;SDS011;10171;42.694;23.318;2022-07-21T08:20:45;4.13;;;3.15;;
20020;SDS011;10171;42.694;23.318;2022-07-21T08:23:10;4.20;;;3.40;;
20020;SDS011;10171;42.694;23.318;2022-07-21T08:25:36;4.18;;;3.30;;
20020;SDS011;10171;42.694;23.318;2022-07-21T08:28:01;4.72;;;3.13;;
20020;SDS011;10171;42.694;23.318;2022-07-21T08:30:26;3.92;;;3.25;;
20020;SDS011;10171;42.694;23.318;2022-07-21T08:32:52;6.50;;;2.95;;
20020;SDS011;10171;42.694;23.318;2022-07-21T08:35:17;4.78;;;4.10;;
20020;SDS011;10171;42.694;23.318;2022-07-21T08:37:51;4.55;;;3.67;;
20020;SDS011;10171;42.694;23.318;2022-07-21T08:40:17;5.13;;;3.38;;
20020;SDS011;10171;42.694;23.318;2022-07-21T08:42:42;6.40;;;3.33;;
20020;SDS011;10171;42.694;23.318;2022-07-21T08:45:08;4.25;;;3.03;;
20020;SDS011;10171;42.694;23.318;2022-07-21T08:47:33;3.33;;;3.00;;
20020;SDS011;10171;42.694;23.318;2022-07-21T08:50:00;5.20;;;3.50;;
20020;SDS011;10171;42.694;23.318;2022-07-21T08:52:25;7.05;;;3.40;;
20020;SDS011;10171;42.694;23.318;2022-07-21T08:54:51;4.05;;;3.53;;
20020;SDS011;10171;42.694;23.318;2022-07-21T08:57:16;3.40;;;3.10;;
20020;SDS011;10171;42.694;23.318;2022-07-21T08:59:41;3.65;;;2.88;;
20020;SDS011;10171;42.694;23.318;2022-07-21T09:02:24;3.47;;;3.17;;
20020;SDS011;10171;42.694;23.318;2022-07-21T09:04:50;3.40;;;3.10;;
20020;SDS011;10171;42.694;23.318;2022-07-21T09:07:15;5.82;;;3.20;;
20020;SDS011;10171;42.694;23.318;2022-07-21T09:09:40;3.78;;;3.40;;
20020;SDS011;10171;42.694;23.318;2022-07-21T09:12:05;3.45;;;3.08;;
20020;SDS011;10171;42.694;23.318;2022-07-21T09:14:31;3.17;;;2.72;;
20020;SDS011;10171;42.694;23.318;2022-07-21T09:16:58;4.30;;;2.80;;
20020;SDS011;10171;42.694;23.318;2022-07-21T09:21:56;7.90;;;4.25;;
20020;SDS011;10171;42.694;23.318;2022-07-21T09:32:11;6.45;;;3.38;;
20020;SDS011;10171;42.694;23.318;2022-07-21T09:34:36;6.78;;;3.50;;
20020;SDS011;10171;42.694;23.318;2022-07-21T09:37:04;19.35;;;7.15;;
20020;SDS011;10171;42.694;23.318;2022-07-21T09:44:41;4.65;;;3.08;;
20020;SDS011;10171;42.694;23.318;2022-07-21T09:47:14;4.50;;;3.22;;
20020;SDS011;10171;42.694;23.318;2022-07-21T09:49:40;4.68;;;3.50;;
20020;SDS011;10171;42.694;23.318;2022-07-21T09:54:46;7.28;;;3.78;;
20020;SDS011;10171;42.694;23.318;2022-07-21T09:57:12;4.13;;;3.10;;
20020;SDS011;10171;42.694;23.318;2022-07-21T09:59:38;5.63;;;2.90;;
20020;SDS011;10171;42.694;23.318;2022-07-21T10:02:04;6.05;;;4.03;;
20020;SDS011;10171;42.694;23.318;2022-07-21T10:04:30;5.80;;;3.22;;
20020;SDS011;10171;42.694;23.318;2022-07-21T10:06:55;6.18;;;3.80;;
20020;SDS011;10171;42.694;23.318;2022-07-21T10:09:21;5.13;;;3.38;;
20020;SDS011;10171;42.694;23.318;2022-07-21T10:11:46;4.97;;;3.30;;
20020;SDS011;10171;42.694;23.318;2022-07-21T10:14:12;4.15;;;3.55;;
20020;SDS011;10171;42.694;23.318;2022-07-21T10:16:37;3.83;;;3.38;;
20020;SDS011;10171;42.694;23.318;2022-07-21T10:19:47;7.70;;;3.00;;
20020;SDS011;10171;42.694;23.318;2022-07-21T10:21:57;4.45;;;2.75;;
20020;SDS011;10171;42.694;23.318;2022-07-21T10:24:25;4.90;;;3.20;;
20020;SDS011;10171;42.694;23.318;2022-07-21T10:26:59;4.13;;;2.53;;
20020;SDS011;10171;42.694;23.318;2022-07-21T10:32:09;3.22;;;2.88;;
20020;SDS011;10171;42.694;23.318;2022-07-21T10:34:35;2.95;;;2.65;;
20020;SDS011;10171;42.694;23.318;2022-07-21T10:37:00;3.78;;;2.58;;
20020;SDS011;10171;42.694;23.318;2022-07-21T10:39:26;3.53;;;3.17;;
20020;SDS011;10171;42.694;23.318;2022-07-21T10:41:55;7.85;;;2.90;;
20020;SDS011;10171;42.694;23.318;2022-07-21T10:47:00;3.20;;;2.90;;
20020;SDS011;10171;42.694;23.318;2022-07-21T10:50:09;3.20;;;2.90;;
20020;SDS011;10171;42.694;23.318;2022-07-21T11:00:48;4.25;;;3.13;;
20020;SDS011;10171;42.694;23.318;2022-07-21T11:03:17;6.32;;;3.70;;
20020;SDS011;10171;42.694;23.318;2022-07-21T11:08:30;4.35;;;2.70;;
20020;SDS011;10171;42.694;23.318;2022-07-21T11:10:58;4.07;;;3.22;;
20020;SDS011;10171;42.694;23.318;2022-07-21T11:13:31;3.00;;;2.70;;
20020;SDS011;10171;42.694;23.318;2022-07-21T11:16:16;3.13;;;2.90;;
20020;SDS011;10171;42.694;23.318;2022-07-21T11:18:42;4.50;;;3.03;;
20020;SDS011;10171;42.694;23.318;2022-07-21T11:23:37;4.80;;;3.08;;
20020;SDS011;10171;42.694;23.318;2022-07-21T11:26:02;2.75;;;2.55;;
20020;SDS011;10171;42.694;23.318;2022-07-21T11:28:28;4.68;;;3.33;;
20020;SDS011;10171;42.694;23.318;2022-07-21T11:31:13;11.25;;;5.10;;
20020;SDS011;10171;42.694;23.318;2022-07-21T11:33:39;6.80;;;3.55;;
20020;SDS011;10171;42.694;23.318;2022-07-21T11:36:05;5.18;;;3.15;;
20020;SDS011;10171;42.694;23.318;2022-07-21T11:38:30;3.40;;;2.78;;
20020;SDS011;10171;42.694;23.318;2022-07-21T11:41:16;3.83;;;3.50;;
20020;SDS011;10171;42.694;23.318;2022-07-21T11:43:42;4.07;;;2.97;;
20020;SDS011;10171;42.694;23.318;2022-07-21T11:46:07;3.30;;;3.00;;
20020;SDS011;10171;42.694;23.318;2022-07-21T11:48:33;3.58;;;3.28;;
20020;SDS011;10171;42.694;23.318;2022-07-21T11:51:01;4.18;;;2.70;;
20020;SDS011;10171;42.694;23.318;2022-07-21T11:53:27;2.90;;;2.65;;
20020;SDS011;10171;42.694;23.318;2022-07-21T11:55:52;3.60;;;3.13;;
20020;SDS011;10171;42.694;23.318;2022-07-21T11:58:19;3.38;;;3.00;;
20020;SDS011;10171;42.694;23.318;2022-07-21T12:00:44;5.70;;;5.18;;
20020;SDS011;10171;42.694;23.318;2022-07-21T12:03:11;8.77;;;4.50;;
20020;SDS011;10171;42.694;23.318;2022-07-21T12:05:38;5.28;;;4.60;;
20020;SDS011;10171;42.694;23.318;2022-07-21T12:08:04;5.45;;;4.13;;
20020;SDS011;10171;42.694;23.318;2022-07-21T12:10:29;3.00;;;2.70;;
20020;SDS011;10171;42.694;23.318;2022-07-21T12:13:02;5.43;;;3.30;;
20020;SDS011;10171;42.694;23.318;2022-07-21T12:15:29;4.72;;;3.75;;
20020;SDS011;10171;42.694;23.318;2022-07-21T12:17:57;5.47;;;2.95;;
20020;SDS011;10171;42.694;23.318;2022-07-21T12:20:27;4.47;;;3.60;;
20020;SDS011;10171;42.694;23.318;2022-07-21T12:22:53;5.95;;;3.42;;
20020;SDS011;10171;42.694;23.318;2022-07-21T12:25:29;3.45;;;3.15;;
20020;SDS011;10171;42.694;23.318;2022-07-21T12:27:54;5.15;;;3.35;;
20020;SDS011;10171;42.694;23.318;2022-07-21T12:30:43;7.03;;;3.30;;
20020;SDS011;10171;42.694;23.318;2022-07-21T12:33:08;11.43;;;4.53;;
20020;SDS011;10171;42.694;23.318;2022-07-21T12:35:35;4.28;;;3.33;;
20020;SDS011;10171;42.694;23.318;2022-07-21T12:40:29;4.13;;;3.20;;
20020;SDS011;10171;42.694;23.318;2022-07-21T12:43:37;3.22;;;2.92;;
20020;SDS011;10171;42.694;23.318;2022-07-21T12:45:47;3.17;;;2.90;;
20020;SDS011;10171;42.694;23.318;2022-07-21T12:48:13;5.20;;;3.53;;
20020;SDS011;10171;42.694;23.318;2022-07-21T12:50:39;4.00;;;3.60;;
20020;SDS011;10171;42.694;23.318;2022-07-21T12:53:08;4.05;;;3.45;;
20020;SDS011;10171;42.694;23.318;2022-07-21T12:55:34;4.32;;;3.17;;
20020;SDS011;10171;42.694;23.318;2022-07-21T12:57:59;4.13;;;3.03;;
20020;SDS011;10171;42.694;23.318;2022-07-21T13:00:24;4.68;;;3.33;;
20020;SDS011;10171;42.694;23.318;2022-07-21T13:02:51;3.42;;;3.10;;
20020;SDS011;10171;42.694;23.318;2022-07-21T13:05:16;7.75;;;3.00;;
20020;SDS011;10171;42.694;23.318;2022-07-21T13:07:42;5.18;;;3.15;;
20020;SDS011;10171;42.694;23.318;2022-07-21T13:10:07;4.60;;;3.25;;
20020;SDS011;10171;42.694;23.318;2022-07-21T13:12:33;2.88;;;2.67;;
20020;SDS011;10171;42.694;23.318;2022-07-21T13:14:58;2.67;;;2.47;;
20020;SDS011;10171;42.694;23.318;2022-07-21T13:17:23;5.97;;;3.85;;
20020;SDS011;10171;42.694;23.318;2022-07-21T13:19:49;3.90;;;3.00;;
20020;SDS011;10171;42.694;23.318;2022-07-21T13:22:14;5.18;;;3.05;;
20020;SDS011;10171;42.694;23.318;2022-07-21T13:24:39;3.30;;;2.97;;
20020;SDS011;10171;42.694;23.318;2022-07-21T13:27:04;4.63;;;2.78;;
20020;SDS011;10171;42.694;23.318;2022-07-21T13:29:30;5.40;;;3.45;;
20020;SDS011;10171;42.694;23.318;2022-07-21T13:31:55;4.53;;;3.45;;
20020;SDS011;10171;42.694;23.318;2022-07-21T13:34:20;3.83;;;3.50;;
20020;SDS011;10171;42.694;23.318;2022-07-21T13:36:46;3.25;;;2.95;;
20020;SDS011;10171;42.694;23.318;2022-07-21T13:39:12;3.92;;;3.30;;
20020;SDS011;10171;42.694;23.318;2022-07-21T13:41:37;4.53;;;3.00;;
20020;SDS011;10171;42.694;23.318;2022-07-21T13:44:03;3.90;;;2.70;;
20020;SDS011;10171;42.694;23.318;2022-07-21T13:46:28;7.53;;;4.00;;
20020;SDS011;10171;42.694;23.318;2022-07-21T13:48:53;4.78;;;3.03;;
20020;SDS011;10171;42.694;23.318;2022-07-21T13:51:19;3.95;;;3.03;;
20020;SDS011;10171;42.694;23.318;2022-07-21T13:53:45;5.38;;;3.00;;
20020;SDS011;10171;42.694;23.318;2022-07-21T13:56:11;4.13;;;3.03;;
20020;SDS011;10171;42.694;23.318;2022-07-21T13:58:37;3.17;;;2.75;;
20020;SDS011;10171;42.694;23.318;2022-07-21T14:01:02;3.75;;;3.20;;
20020;SDS011;10171;42.694;23.318;2022-07-21T14:03:28;3.40;;;3.10;;
20020;SDS011;10171;42.694;23.318;2022-07-21T14:05:53;2.83;;;2.63;;
20020;SDS011;10171;42.694;23.318;2022-07-21T14:08:18;4.22;;;3.00;;
20020;SDS011;10171;42.694;23.318;2022-07-21T14:10:44;2.80;;;2.60;;
20020;SDS011;10171;42.694;23.318;2022-07-21T14:13:09;4.32;;;2.92;;
20020;SDS011;10171;42.694;23.318;2022-07-21T14:15:34;2.80;;;2.60;;
20020;SDS011;10171;42.694;23.318;2022-07-21T14:17:59;3.85;;;2.70;;
20020;SDS011;10171;42.694;23.318;2022-07-21T14:20:25;3.50;;;2.60;;
20020;SDS011;10171;42.694;23.318;2022-07-21T14:22:50;2.88;;;2.63;;
20020;SDS011;10171;42.694;23.318;2022-07-21T14:25:16;5.40;;;2.80;;
20020;SDS011;10171;42.694;23.318;2022-07-21T14:27:44;3.90;;;3.00;;
20020;SDS011;10171;42.694;23.318;2022-07-21T14:30:10;4.65;;;2.85;;
20020;SDS011;10171;42.694;23.318;2022-07-21T14:32:35;3.47;;;3.17;;
20020;SDS011;10171;42.694;23.318;2022-07-21T14:35:00;4.22;;;3.55;;
20020;SDS011;10171;42.694;23.318;2022-07-21T14:37:26;15.70;;;3.60;;
20020;SDS011;10171;42.694;23.318;2022-07-21T14:39:51;3.60;;;3.08;;
20020;SDS011;10171;42.694;23.318;2022-07-21T14:42:16;4.53;;;2.90;;
20020;SDS011;10171;42.694;23.318;2022-07-21T14:44:42;3.13;;;2.92;;
20020;SDS011;10171;42.694;23.318;2022-07-21T14:47:07;4.28;;;3.13;;
20020;SDS011;10171;42.694;23.318;2022-07-21T14:49:33;3.05;;;2.75;;
20020;SDS011;10171;42.694;23.318;2022-07-21T14:51:58;7.72;;;3.13;;
20020;SDS011;10171;42.694;23.318;2022-07-21T14:54:24;3.78;;;2.55;;
20020;SDS011;10171;42.694;23.318;2022-07-21T14:56:49;4.75;;;4.00;;
20020;SDS011;10171;42.694;23.318;2022-07-21T14:59:14;5.35;;;3.25;;
20020;SDS011;10171;42.694;23.318;2022-07-21T15:01:40;2.90;;;2.60;;
20020;SDS011;10171;42.694;23.318;2022-07-21T15:04:05;6.60;;;3.20;;
20020;SDS011;10171;42.694;23.318;2022-07-21T15:06:30;4.55;;;2.75;;
20020;SDS011;10171;42.694;23.318;2022-07-21T15:08:55;3.55;;;2.88;;